createdAt,value
2018-07-16T00:00:35.872Z,17.97
2018-07-16T00:01:36.082Z,17.97
2018-07-16T00:02:35.693Z,17.97
2018-07-16T00:03:35.590Z,17.87
2018-07-16T00:04:35.495Z,17.89
2018-07-16T00:05:35.404Z,17.95
2018-07-16T00:06:35.303Z,17.95
2018-07-16T00:07:35.212Z,17.90
2018-07-16T00:08:35.116Z,17.94
2018-07-16T00:09:35.013Z,17.86
2018-07-16T00:10:34.925Z,17.82
2018-07-16T00:11:34.822Z,17.87
2018-07-16T00:12:34.735Z,17.83
2018-07-16T00:13:34.645Z,17.86
2018-07-16T00:14:34.598Z,17.90
2018-07-16T00:15:34.450Z,17.79
2018-07-16T00:16:34.356Z,17.72
2018-07-16T00:17:34.255Z,17.70
2018-07-16T00:18:34.158Z,17.68
2018-07-16T00:19:34.068Z,17.60
2018-07-16T00:20:33.968Z,17.63
2018-07-16T00:21:33.878Z,17.57
2018-07-16T00:22:33.773Z,17.51
2018-07-16T00:23:33.682Z,17.48
2018-07-16T00:24:33.596Z,17.52
2018-07-16T00:25:33.492Z,17.49
2018-07-16T00:26:33.400Z,17.46
2018-07-16T00:27:33.307Z,17.44
2018-07-16T00:28:33.200Z,17.38
2018-07-16T00:29:33.115Z,17.36
2018-07-16T00:30:33.013Z,17.38
2018-07-16T00:31:32.920Z,17.41
2018-07-16T00:32:32.826Z,17.41
2018-07-16T00:33:32.728Z,17.39
2018-07-16T00:34:32.646Z,17.45
2018-07-16T00:35:32.545Z,17.46
2018-07-16T00:36:32.443Z,17.41
2018-07-16T00:37:32.352Z,17.42
2018-07-16T00:38:32.243Z,17.39
2018-07-16T00:39:32.152Z,17.38
2018-07-16T00:40:32.064Z,17.41
2018-07-16T00:41:31.961Z,17.39
2018-07-16T00:42:31.874Z,17.38
2018-07-16T00:43:31.782Z,17.36
2018-07-16T00:44:31.674Z,17.38
2018-07-16T00:45:31.585Z,17.36
2018-07-16T00:46:31.736Z,17.39
2018-07-16T00:47:31.393Z,17.31
2018-07-16T00:48:31.303Z,17.36
2018-07-16T00:49:31.208Z,17.27
2018-07-16T00:50:31.102Z,17.31
2018-07-16T00:51:31.001Z,17.24
2018-07-16T00:52:30.913Z,17.22
2018-07-16T00:53:30.822Z,17.23
2018-07-16T00:54:30.716Z,17.14
2018-07-16T00:55:30.626Z,17.23
2018-07-16T00:56:30.586Z,17.16
2018-07-16T00:57:30.451Z,17.09
2018-07-16T00:58:30.344Z,17.02
2018-07-16T00:59:30.240Z,17.02
2018-07-16T01:00:30.144Z,16.94
2018-07-16T01:01:30.055Z,16.90
2018-07-16T01:02:29.955Z,16.94
2018-07-16T01:03:29.864Z,16.89
2018-07-16T01:04:29.756Z,16.79
2018-07-16T01:05:29.665Z,16.83
2018-07-16T01:06:29.876Z,16.74
2018-07-16T01:07:29.473Z,16.72
2018-07-16T01:08:29.387Z,16.74
2018-07-16T01:09:29.284Z,16.76
2018-07-16T01:10:29.186Z,16.69
2018-07-16T01:11:29.096Z,16.66
2018-07-16T01:12:28.997Z,16.58
2018-07-16T01:13:28.905Z,16.66
2018-07-16T01:14:28.804Z,16.47
2018-07-16T01:15:28.714Z,16.53
2018-07-16T01:16:28.619Z,16.46
2018-07-16T01:17:28.515Z,16.38
2018-07-16T01:18:28.426Z,16.33
2018-07-16T01:19:28.323Z,16.35
2018-07-16T01:20:28.227Z,16.29
2018-07-16T01:21:28.126Z,16.36
2018-07-16T01:22:28.036Z,16.28
2018-07-16T01:23:27.945Z,16.32
2018-07-16T01:24:27.868Z,16.26
2018-07-16T01:25:27.756Z,16.33
2018-07-16T01:26:27.646Z,16.26
2018-07-16T01:27:27.554Z,16.24
2018-07-16T01:28:27.468Z,16.24
2018-07-16T01:29:27.365Z,16.21
2018-07-16T01:30:27.276Z,16.21
2018-07-16T01:31:27.172Z,16.24
2018-07-16T01:32:27.071Z,16.23
2018-07-16T01:33:26.986Z,16.20
2018-07-16T01:34:26.887Z,16.17
2018-07-16T01:35:26.798Z,16.10
2018-07-16T01:36:26.690Z,16.17
2018-07-16T01:37:26.599Z,16.05
2018-07-16T01:38:26.493Z,16.17
2018-07-16T01:39:26.402Z,16.15
2018-07-16T01:40:26.315Z,16.09
2018-07-16T01:41:26.214Z,16.04
2018-07-16T01:42:26.119Z,16.04
2018-07-16T01:43:26.016Z,16.02
2018-07-16T01:44:25.930Z,16.08
2018-07-16T01:45:25.827Z,15.92
2018-07-16T01:46:25.735Z,15.94
2018-07-16T01:47:25.642Z,15.91
2018-07-16T01:48:25.536Z,15.88
2018-07-16T01:49:25.451Z,15.86
2018-07-16T01:50:25.345Z,15.88
2018-07-16T01:51:25.255Z,15.91
2018-07-16T01:52:25.150Z,15.86
2018-07-16T01:53:25.058Z,15.73
2018-07-16T01:54:24.967Z,15.75
2018-07-16T01:55:24.877Z,15.73
2018-07-16T01:56:24.778Z,15.67
2018-07-16T01:57:24.674Z,15.77
2018-07-16T01:58:24.577Z,15.73
2018-07-16T01:59:24.475Z,15.73
2018-07-16T02:00:24.387Z,15.70
2018-07-16T02:01:24.283Z,15.70
2018-07-16T02:02:24.196Z,15.75
2018-07-16T02:03:24.105Z,15.59
2018-07-16T02:04:24.000Z,15.68
2018-07-16T02:05:23.918Z,15.61
2018-07-16T02:06:23.810Z,15.70
2018-07-16T02:07:23.717Z,15.55
2018-07-16T02:08:23.609Z,15.59
2018-07-16T02:09:23.517Z,15.51
2018-07-16T02:10:23.412Z,15.49
2018-07-16T02:11:23.322Z,15.51
2018-07-16T02:12:23.222Z,15.44
2018-07-16T02:13:23.131Z,15.40
2018-07-16T02:14:23.039Z,15.42
2018-07-16T02:15:22.937Z,15.51
2018-07-16T02:16:22.849Z,15.44
2018-07-16T02:17:22.750Z,15.46
2018-07-16T02:18:22.653Z,15.46
2018-07-16T02:19:22.551Z,15.40
2018-07-16T02:20:22.454Z,15.43
2018-07-16T02:21:22.351Z,15.25
2018-07-16T02:22:22.264Z,15.39
2018-07-16T02:23:22.158Z,15.43
2018-07-16T02:24:22.070Z,15.36
2018-07-16T02:25:21.985Z,15.37
2018-07-16T02:26:21.878Z,15.36
2018-07-16T02:27:21.788Z,15.37
2018-07-16T02:28:21.680Z,15.25
2018-07-16T02:29:21.592Z,15.27
2018-07-16T02:30:21.495Z,15.35
2018-07-16T02:31:21.396Z,15.31
2018-07-16T02:32:21.289Z,15.28
2018-07-16T02:33:21.200Z,15.25
2018-07-16T02:34:21.098Z,15.35
2018-07-16T02:35:21.007Z,15.25
2018-07-16T02:36:20.909Z,15.24
2018-07-16T02:37:20.817Z,15.25
2018-07-16T02:38:20.712Z,15.27
2018-07-16T02:39:20.623Z,15.27
2018-07-16T02:40:20.521Z,15.27
2018-07-16T02:41:20.429Z,15.25
2018-07-16T02:42:20.337Z,15.19
2018-07-16T02:43:20.234Z,15.22
2018-07-16T02:44:20.138Z,15.07
2018-07-16T02:45:20.036Z,15.09
2018-07-16T02:46:19.950Z,15.10
2018-07-16T02:47:19.846Z,15.14
2018-07-16T02:48:19.752Z,15.06
2018-07-16T02:49:19.649Z,15.09
2018-07-16T02:50:19.555Z,15.09
2018-07-16T02:51:19.452Z,15.14
2018-07-16T02:52:19.366Z,15.07
2018-07-16T02:53:19.262Z,14.97
2018-07-16T02:54:19.167Z,15.04
2018-07-16T02:55:19.064Z,14.91
2018-07-16T02:56:19.067Z,14.96
2018-07-16T02:57:18.876Z,15.02
2018-07-16T02:58:18.786Z,15.07
2018-07-16T02:59:18.686Z,15.02
2018-07-16T03:00:18.588Z,14.99
2018-07-16T03:01:18.734Z,15.03
2018-07-16T03:02:18.398Z,15.09
2018-07-16T03:03:18.304Z,15.02
2018-07-16T03:04:18.197Z,14.97
2018-07-16T03:05:18.106Z,15.03
2018-07-16T03:06:18.005Z,14.92
2018-07-16T03:07:17.914Z,14.96
2018-07-16T03:08:17.815Z,14.96
2018-07-16T03:09:17.725Z,15.06
2018-07-16T03:10:17.617Z,15.02
2018-07-16T03:11:17.526Z,14.91
2018-07-16T03:12:17.458Z,14.92
2018-07-16T03:13:17.338Z,14.97
2018-07-16T03:14:17.230Z,14.94
2018-07-16T03:15:17.142Z,15.02
2018-07-16T03:16:17.033Z,14.89
2018-07-16T03:17:16.941Z,14.89
2018-07-16T03:18:16.844Z,14.94
2018-07-16T03:19:16.754Z,14.92
2018-07-16T03:20:16.647Z,14.92
2018-07-16T03:21:16.555Z,14.86
2018-07-16T03:22:16.450Z,14.86
2018-07-16T03:23:16.359Z,14.89
2018-07-16T03:24:16.260Z,14.84
2018-07-16T03:25:16.168Z,14.85
2018-07-16T03:26:16.064Z,14.86
2018-07-16T03:27:15.973Z,14.88
2018-07-16T03:28:15.874Z,14.79
2018-07-16T03:29:15.782Z,14.77
2018-07-16T03:30:15.677Z,14.89
2018-07-16T03:31:15.589Z,14.89
2018-07-16T03:32:15.480Z,14.79
2018-07-16T03:33:15.387Z,14.86
2018-07-16T03:34:15.290Z,14.88
2018-07-16T03:35:15.201Z,14.89
2018-07-16T03:36:15.093Z,14.91
2018-07-16T03:37:15.002Z,14.92
2018-07-16T03:38:14.898Z,14.86
2018-07-16T03:39:14.806Z,14.89
2018-07-16T03:40:14.706Z,15.02
2018-07-16T03:41:14.615Z,14.97
2018-07-16T03:42:14.509Z,15.03
2018-07-16T03:43:14.417Z,15.06
2018-07-16T03:44:14.319Z,15.09
2018-07-16T03:45:14.227Z,15.17
2018-07-16T03:46:14.127Z,15.21
2018-07-16T03:47:14.036Z,15.27
2018-07-16T03:48:13.941Z,15.31
2018-07-16T03:49:13.852Z,15.42
2018-07-16T03:50:13.749Z,15.47
2018-07-16T03:51:13.895Z,15.49
2018-07-16T03:52:13.549Z,15.55
2018-07-16T03:53:13.447Z,15.54
2018-07-16T03:54:13.358Z,15.49
2018-07-16T03:55:13.256Z,15.58
2018-07-16T03:56:13.168Z,15.59
2018-07-16T03:57:13.064Z,15.52
2018-07-16T03:58:12.973Z,15.62
2018-07-16T03:59:12.867Z,15.70
2018-07-16T04:00:12.780Z,15.72
2018-07-16T04:01:12.977Z,15.77
2018-07-16T04:02:12.583Z,15.80
2018-07-16T04:03:12.494Z,16.02
2018-07-16T04:04:12.385Z,16.31
2018-07-16T04:05:12.295Z,16.33
2018-07-16T04:06:12.198Z,16.39
2018-07-16T04:07:12.107Z,16.39
2018-07-16T04:08:11.999Z,16.46
2018-07-16T04:09:11.910Z,16.51
2018-07-16T04:10:11.816Z,16.47
2018-07-16T04:11:11.712Z,16.38
2018-07-16T04:12:11.626Z,16.46
2018-07-16T04:13:11.523Z,16.46
2018-07-16T04:14:11.427Z,16.46
2018-07-16T04:15:11.348Z,16.66
2018-07-16T04:16:11.237Z,16.53
2018-07-16T04:17:11.146Z,16.65
2018-07-16T04:18:11.045Z,16.76
2018-07-16T04:19:10.955Z,16.84
2018-07-16T04:20:10.847Z,16.93
2018-07-16T04:21:10.756Z,17.14
2018-07-16T04:22:10.669Z,17.22
2018-07-16T04:23:10.567Z,17.19
2018-07-16T04:24:10.473Z,17.26
2018-07-16T04:25:10.366Z,17.29
2018-07-16T04:26:10.278Z,17.49
2018-07-16T04:27:10.191Z,17.57
2018-07-16T04:28:10.120Z,17.76
2018-07-16T04:29:09.998Z,17.97
2018-07-16T04:30:09.899Z,18.03
2018-07-16T04:31:09.796Z,18.00
2018-07-16T04:32:09.714Z,18.01
2018-07-16T04:33:09.619Z,17.95
2018-07-16T04:34:09.517Z,17.98
2018-07-16T04:35:09.427Z,17.92
2018-07-16T04:36:09.320Z,17.97
2018-07-16T04:37:09.227Z,18.01
2018-07-16T04:38:09.139Z,18.11
2018-07-16T04:39:09.048Z,18.37
2018-07-16T04:40:08.945Z,18.38
2018-07-16T04:41:08.851Z,18.65
2018-07-16T04:42:08.761Z,19.12
2018-07-16T04:43:08.661Z,19.76
2018-07-16T04:44:08.579Z,20.24
2018-07-16T04:45:08.482Z,20.69
2018-07-16T04:46:08.386Z,21.07
2018-07-16T04:47:08.283Z,21.42
2018-07-16T04:48:08.195Z,21.72
2018-07-16T04:49:08.106Z,21.99
2018-07-16T04:50:08.003Z,22.33
2018-07-16T04:51:07.908Z,22.43
2018-07-16T04:52:07.815Z,22.65
2018-07-16T04:53:07.722Z,22.80
2018-07-16T04:54:07.639Z,23.02
2018-07-16T04:55:07.536Z,23.13
2018-07-16T04:56:07.489Z,23.40
2018-07-16T04:57:07.350Z,23.40
2018-07-16T04:58:07.257Z,23.46
2018-07-16T04:59:07.166Z,23.80
2018-07-16T05:00:07.078Z,24.01
2018-07-16T05:01:06.988Z,24.21
2018-07-16T05:02:06.895Z,24.28
2018-07-16T05:03:06.797Z,24.51
2018-07-16T05:04:06.706Z,24.51
2018-07-16T05:05:06.612Z,24.69
2018-07-16T05:06:06.524Z,24.89
2018-07-16T05:07:06.436Z,25.01
2018-07-16T05:08:06.339Z,25.22
2018-07-16T05:09:06.246Z,25.28
2018-07-16T05:10:06.158Z,25.33
2018-07-16T05:11:06.070Z,25.41
2018-07-16T05:12:05.978Z,25.40
2018-07-16T05:13:05.887Z,25.50
2018-07-16T05:14:05.794Z,25.62
2018-07-16T05:15:05.701Z,25.41
2018-07-16T05:16:05.619Z,25.53
2018-07-16T05:17:05.531Z,25.50
2018-07-16T05:18:05.501Z,25.47
2018-07-16T05:19:05.341Z,25.51
2018-07-16T05:20:05.267Z,25.38
2018-07-16T05:21:05.176Z,25.53
2018-07-16T05:22:05.081Z,25.69
2018-07-16T05:23:04.991Z,25.40
2018-07-16T05:24:04.902Z,25.41
2018-07-16T05:25:04.813Z,25.18
2018-07-16T05:26:04.722Z,24.98
2018-07-16T05:27:04.633Z,25.08
2018-07-16T05:28:04.536Z,25.55
2018-07-16T05:29:04.455Z,25.78
2018-07-16T05:30:04.365Z,26.09
2018-07-16T05:31:04.275Z,26.26
2018-07-16T05:32:04.239Z,26.60
2018-07-16T05:33:04.094Z,26.59
2018-07-16T05:34:04.003Z,26.92
2018-07-16T05:35:03.927Z,27.17
2018-07-16T05:36:03.837Z,27.22
2018-07-16T05:37:03.746Z,27.18
2018-07-16T05:38:03.665Z,27.45
2018-07-16T05:39:03.564Z,27.64
2018-07-16T05:40:03.483Z,27.93
2018-07-16T05:41:03.388Z,28.07
2018-07-16T05:42:03.306Z,28.14
2018-07-16T05:43:03.214Z,28.26
2018-07-16T05:44:03.132Z,28.39
2018-07-16T05:45:03.041Z,28.15
2018-07-16T05:46:02.947Z,28.38
2018-07-16T05:47:02.860Z,28.62
2018-07-16T05:48:02.783Z,28.74
2018-07-16T05:49:02.692Z,28.76
2018-07-16T05:50:02.603Z,28.64
2018-07-16T05:51:02.519Z,28.56
2018-07-16T05:52:02.432Z,28.82
2018-07-16T05:53:02.342Z,28.76
2018-07-16T05:54:02.265Z,28.49
2018-07-16T05:55:02.177Z,28.81
2018-07-16T05:56:02.081Z,29.10
2018-07-16T05:57:02.001Z,29.29
2018-07-16T05:58:01.912Z,29.75
2018-07-16T05:59:01.823Z,29.81
2018-07-16T06:00:01.740Z,29.73
2018-07-16T06:01:01.655Z,29.81
2018-07-16T06:02:01.560Z,29.84
2018-07-16T06:03:01.482Z,29.98
2018-07-16T06:04:01.394Z,29.82
2018-07-16T06:05:01.316Z,29.65
2018-07-16T06:06:01.222Z,29.39
2018-07-16T06:07:01.130Z,29.51
2018-07-16T06:08:01.056Z,28.57
2018-07-16T06:09:00.966Z,28.66
2018-07-16T06:10:00.884Z,28.08
2018-07-16T06:11:00.796Z,28.38
2018-07-16T06:12:00.700Z,28.82
2018-07-16T06:13:00.621Z,28.10
2018-07-16T06:14:00.536Z,28.02
2018-07-16T06:15:00.459Z,28.12
2018-07-16T06:16:00.370Z,28.25
2018-07-16T06:17:00.289Z,28.59
2018-07-16T06:18:00.191Z,29.34
2018-07-16T06:19:00.114Z,29.75
2018-07-16T06:20:00.033Z,30.10
2018-07-16T06:20:59.952Z,30.47
2018-07-16T06:21:59.853Z,30.65
2018-07-16T06:22:59.779Z,30.92
2018-07-16T06:23:59.693Z,31.31
2018-07-16T06:24:59.610Z,31.74
2018-07-16T06:25:59.521Z,31.77
2018-07-16T06:26:59.447Z,32.08
2018-07-16T06:27:59.349Z,32.37
2018-07-16T06:28:59.271Z,32.60
2018-07-16T06:29:59.181Z,32.53
2018-07-16T06:30:59.102Z,32.14
2018-07-16T06:31:59.009Z,32.14
2018-07-16T06:32:58.930Z,32.12
2018-07-16T06:33:58.841Z,32.21
2018-07-16T06:34:58.763Z,32.08
2018-07-16T06:35:58.678Z,31.93
2018-07-16T06:36:58.598Z,32.08
2018-07-16T06:37:58.520Z,31.92
2018-07-16T06:38:58.428Z,31.87
2018-07-16T06:39:58.362Z,31.96
2018-07-16T06:40:58.404Z,32.23
2018-07-16T06:41:58.176Z,32.43
2018-07-16T06:42:58.100Z,32.60
2018-07-16T06:43:58.010Z,32.82
2018-07-16T06:44:57.932Z,32.80
2018-07-16T06:45:57.853Z,32.83
2018-07-16T06:46:57.761Z,32.83
2018-07-16T06:47:57.687Z,32.38
2018-07-16T06:48:57.599Z,32.22
2018-07-16T06:49:57.529Z,32.40
2018-07-16T06:50:57.436Z,32.46
2018-07-16T06:51:57.343Z,32.27
2018-07-16T06:52:57.268Z,32.56
2018-07-16T06:53:57.190Z,32.77
2018-07-16T06:54:57.109Z,32.65
2018-07-16T06:55:57.016Z,32.83
2018-07-16T06:56:56.937Z,32.90
2018-07-16T06:57:56.853Z,32.38
2018-07-16T06:58:56.771Z,32.56
2018-07-16T06:59:56.698Z,32.56
2018-07-16T07:00:56.606Z,32.22
2018-07-16T07:01:56.521Z,31.56
2018-07-16T07:02:56.444Z,31.24
2018-07-16T07:03:56.359Z,31.69
2018-07-16T07:04:56.280Z,31.54
2018-07-16T07:05:56.203Z,31.94
2018-07-16T07:06:56.112Z,32.14
2018-07-16T07:07:56.029Z,32.29
2018-07-16T07:08:55.950Z,32.30
2018-07-16T07:09:55.935Z,32.64
2018-07-16T07:10:55.789Z,32.87
2018-07-16T07:11:55.704Z,33.09
2018-07-16T07:12:55.626Z,33.14
2018-07-16T07:13:55.531Z,32.78
2018-07-16T07:14:55.453Z,32.51
2018-07-16T07:15:55.378Z,31.51
2018-07-16T07:16:55.289Z,31.21
2018-07-16T07:17:55.210Z,31.34
2018-07-16T07:18:55.130Z,31.69
2018-07-16T07:19:55.056Z,32.11
2018-07-16T07:20:54.969Z,32.18
2018-07-16T07:21:54.884Z,32.27
2018-07-16T07:22:54.806Z,32.33
2018-07-16T07:23:54.723Z,32.04
2018-07-16T07:24:54.634Z,31.76
2018-07-16T07:25:54.559Z,31.56
2018-07-16T07:26:54.481Z,31.94
2018-07-16T07:27:54.407Z,32.11
2018-07-16T07:28:54.309Z,31.94
2018-07-16T07:29:54.230Z,31.65
2018-07-16T07:30:54.152Z,31.62
2018-07-16T07:31:54.078Z,31.39
2018-07-16T07:32:53.988Z,31.71
2018-07-16T07:33:53.904Z,32.45
2018-07-16T07:34:53.860Z,32.83
2018-07-16T07:35:53.757Z,33.32
2018-07-16T07:36:53.661Z,33.74
2018-07-16T07:37:53.583Z,33.74
2018-07-16T07:38:53.506Z,33.83
2018-07-16T07:39:53.445Z,34.03
2018-07-16T07:40:53.344Z,33.99
2018-07-16T07:41:53.257Z,33.53
2018-07-16T07:42:53.178Z,33.79
2018-07-16T07:43:53.096Z,33.67
2018-07-16T07:44:53.017Z,33.28
2018-07-16T07:45:52.941Z,32.29
2018-07-16T07:46:52.851Z,32.12
2018-07-16T07:47:52.775Z,31.10
2018-07-16T07:48:52.698Z,31.06
2018-07-16T07:49:52.614Z,31.07
2018-07-16T07:50:52.534Z,31.70
2018-07-16T07:51:52.449Z,32.12
2018-07-16T07:52:52.370Z,32.53
2018-07-16T07:53:52.294Z,32.82
2018-07-16T07:54:52.419Z,33.24
2018-07-16T07:55:52.135Z,33.08
2018-07-16T07:56:52.054Z,32.95
2018-07-16T07:57:51.968Z,32.48
2018-07-16T07:58:51.889Z,32.08
2018-07-16T07:59:51.806Z,32.01
2018-07-16T08:00:51.728Z,31.71
2018-07-16T08:01:51.648Z,31.78
2018-07-16T08:02:51.558Z,31.94
2018-07-16T08:03:51.484Z,32.45
2018-07-16T08:04:51.405Z,33.00
2018-07-16T08:05:51.328Z,32.65
2018-07-16T08:06:51.247Z,32.43
2018-07-16T08:07:51.159Z,32.18
2018-07-16T08:08:51.081Z,32.41
2018-07-16T08:09:51.000Z,32.27
2018-07-16T08:10:50.922Z,32.03
2018-07-16T08:11:50.829Z,32.09
2018-07-16T08:12:50.750Z,31.71
2018-07-16T08:13:50.715Z,31.61
2018-07-16T08:14:50.596Z,31.05
2018-07-16T08:15:50.501Z,30.75
2018-07-16T08:16:50.435Z,30.96
2018-07-16T08:17:50.354Z,30.97
2018-07-16T08:18:50.256Z,31.36
2018-07-16T08:19:50.184Z,31.69
2018-07-16T08:20:50.105Z,31.84
2018-07-16T08:21:50.007Z,31.89
2018-07-16T08:22:49.929Z,31.76
2018-07-16T08:23:49.842Z,31.37
2018-07-16T08:24:49.764Z,31.42
2018-07-16T08:25:49.677Z,31.47
2018-07-16T08:26:49.596Z,31.22
2018-07-16T08:27:49.501Z,30.90
2018-07-16T08:28:49.424Z,30.90
2018-07-16T08:29:49.336Z,30.96
2018-07-16T08:30:49.259Z,31.07
2018-07-16T08:31:49.165Z,31.09
2018-07-16T08:32:49.073Z,31.15
2018-07-16T08:33:48.992Z,30.50
2018-07-16T08:34:48.902Z,30.48
2018-07-16T08:35:48.827Z,30.05
2018-07-16T08:36:48.736Z,29.51
2018-07-16T08:37:48.644Z,29.49
2018-07-16T08:38:48.565Z,30.13
2018-07-16T08:39:48.478Z,30.84
2018-07-16T08:40:48.388Z,31.31
2018-07-16T08:41:48.294Z,31.21
2018-07-16T08:42:48.217Z,30.54
2018-07-16T08:43:48.122Z,30.80
2018-07-16T08:44:48.031Z,31.42
2018-07-16T08:45:47.941Z,31.15
2018-07-16T08:46:47.863Z,31.87
2018-07-16T08:47:47.788Z,32.30
2018-07-16T08:48:47.684Z,32.40
2018-07-16T08:49:47.595Z,31.66
2018-07-16T08:50:47.529Z,31.77
2018-07-16T08:51:47.422Z,31.31
2018-07-16T08:52:47.336Z,30.87
2018-07-16T08:53:47.245Z,30.92
2018-07-16T08:54:47.165Z,30.96
2018-07-16T08:55:47.071Z,31.05
2018-07-16T08:56:46.981Z,30.61
2018-07-16T08:57:46.902Z,31.24
2018-07-16T08:58:46.813Z,31.12
2018-07-16T08:59:46.739Z,32.09
2018-07-16T09:00:46.647Z,32.16
2018-07-16T09:01:46.565Z,32.29
2018-07-16T09:02:46.473Z,32.48
2018-07-16T09:03:46.398Z,32.26
2018-07-16T09:04:46.309Z,32.51
2018-07-16T09:05:46.228Z,31.94
2018-07-16T09:06:46.149Z,32.22
2018-07-16T09:07:46.055Z,32.18
2018-07-16T09:08:45.975Z,31.93
2018-07-16T09:09:45.892Z,32.16
2018-07-16T09:10:45.817Z,32.22
2018-07-16T09:11:45.737Z,32.04
2018-07-16T09:12:45.646Z,32.31
2018-07-16T09:13:45.560Z,33.22
2018-07-16T09:14:45.481Z,33.62
2018-07-16T09:15:45.407Z,33.84
2018-07-16T09:16:45.340Z,33.92
2018-07-16T09:17:45.237Z,33.90
2018-07-16T09:18:45.155Z,34.29
2018-07-16T09:19:45.082Z,34.29
2018-07-16T09:20:45.004Z,34.20
2018-07-16T09:21:44.927Z,33.74
2018-07-16T09:22:44.837Z,33.76
2018-07-16T09:23:44.752Z,33.14
2018-07-16T09:24:44.675Z,32.73
2018-07-16T09:25:44.611Z,32.83
2018-07-16T09:26:44.521Z,32.64
2018-07-16T09:27:44.437Z,32.53
2018-07-16T09:28:44.359Z,32.64
2018-07-16T09:29:44.283Z,32.93
2018-07-16T09:30:44.205Z,32.74
2018-07-16T09:31:44.130Z,32.09
2018-07-16T09:32:44.047Z,31.78
2018-07-16T09:33:43.958Z,31.76
2018-07-16T09:34:43.879Z,32.01
2018-07-16T09:35:43.806Z,32.82
2018-07-16T09:36:43.728Z,33.49
2018-07-16T09:37:43.648Z,33.14
2018-07-16T09:38:43.569Z,33.59
2018-07-16T09:39:43.486Z,34.23
2018-07-16T09:40:43.407Z,34.51
2018-07-16T09:41:43.335Z,33.83
2018-07-16T09:42:43.268Z,33.87
2018-07-16T09:43:43.174Z,33.12
2018-07-16T09:44:43.096Z,33.08
2018-07-16T09:45:43.016Z,33.37
2018-07-16T09:46:42.940Z,32.92
2018-07-16T09:47:42.863Z,33.58
2018-07-16T09:48:42.785Z,32.40
2018-07-16T09:49:42.705Z,32.33
2018-07-16T09:50:42.627Z,31.93
2018-07-16T09:51:42.565Z,31.76
2018-07-16T09:52:42.474Z,31.87
2018-07-16T09:53:42.394Z,32.21
2018-07-16T09:54:42.315Z,32.52
2018-07-16T09:55:42.234Z,31.66
2018-07-16T09:56:42.155Z,31.73
2018-07-16T09:57:42.098Z,32.21
2018-07-16T09:58:42.016Z,32.45
2018-07-16T09:59:41.933Z,32.00
2018-07-16T10:00:41.855Z,32.52
2018-07-16T10:01:41.774Z,31.99
2018-07-16T10:02:41.696Z,31.73
2018-07-16T10:03:41.622Z,32.43
2018-07-16T10:04:41.557Z,33.00
2018-07-16T10:05:41.461Z,32.95
2018-07-16T10:06:41.382Z,32.83
2018-07-16T10:07:41.309Z,32.86
2018-07-16T10:08:41.232Z,32.53
2018-07-16T10:09:41.155Z,32.43
2018-07-16T10:10:41.076Z,32.65
2018-07-16T10:11:40.994Z,32.46
2018-07-16T10:12:40.917Z,32.23
2018-07-16T10:13:40.853Z,32.31
2018-07-16T10:14:40.761Z,32.59
2018-07-16T10:15:40.679Z,32.64
2018-07-16T10:16:40.613Z,33.11
2018-07-16T10:17:40.538Z,33.15
2018-07-16T10:18:40.460Z,33.01
2018-07-16T10:19:40.385Z,33.57
2018-07-16T10:20:40.386Z,33.92
2018-07-16T10:21:40.225Z,33.90
2018-07-16T10:22:40.146Z,34.24
2018-07-16T10:23:40.071Z,34.73
2018-07-16T10:24:39.994Z,35.17
2018-07-16T10:25:39.924Z,35.00
2018-07-16T10:26:39.847Z,34.81
2018-07-16T10:27:39.766Z,34.54
2018-07-16T10:28:39.688Z,34.73
2018-07-16T10:29:39.616Z,34.39
2018-07-16T10:30:39.537Z,34.96
2018-07-16T10:31:39.454Z,34.01
2018-07-16T10:32:39.388Z,33.37
2018-07-16T10:33:39.354Z,33.76
2018-07-16T10:34:39.231Z,33.74
2018-07-16T10:35:39.155Z,34.16
2018-07-16T10:36:39.089Z,34.33
2018-07-16T10:37:39.006Z,35.15
2018-07-16T10:38:38.928Z,35.45
2018-07-16T10:39:38.854Z,34.64
2018-07-16T10:40:38.788Z,34.29
2018-07-16T10:41:38.712Z,34.27
2018-07-16T10:42:38.634Z,34.38
2018-07-16T10:43:38.577Z,34.35
2018-07-16T10:44:38.486Z,35.02
2018-07-16T10:45:38.410Z,35.46
2018-07-16T10:46:38.344Z,36.08
2018-07-16T10:47:38.266Z,36.70
2018-07-16T10:48:38.186Z,36.54
2018-07-16T10:49:38.182Z,36.30
2018-07-16T10:50:38.040Z,36.64
2018-07-16T10:51:37.966Z,37.10
2018-07-16T10:52:37.901Z,35.58
2018-07-16T10:53:37.822Z,35.48
2018-07-16T10:54:37.744Z,35.19
2018-07-16T10:55:37.673Z,34.60
2018-07-16T10:56:37.595Z,34.43
2018-07-16T10:57:37.514Z,34.35
2018-07-16T10:58:37.450Z,32.97
2018-07-16T10:59:37.375Z,32.29
2018-07-16T11:00:37.297Z,32.83
2018-07-16T11:01:37.229Z,33.90
2018-07-16T11:02:37.150Z,34.10
2018-07-16T11:03:37.076Z,34.67
2018-07-16T11:04:36.997Z,35.31
2018-07-16T11:05:36.931Z,35.05
2018-07-16T11:06:36.852Z,34.93
2018-07-16T11:07:36.769Z,35.30
2018-07-16T11:08:36.692Z,35.33
2018-07-16T11:09:36.629Z,34.01
2018-07-16T11:10:36.550Z,34.20
2018-07-16T11:11:36.468Z,34.16
2018-07-16T11:12:36.389Z,34.18
2018-07-16T11:13:36.314Z,34.20
2018-07-16T11:14:36.235Z,33.27
2018-07-16T11:15:36.162Z,32.78
2018-07-16T11:16:36.009Z,32.16
2018-07-16T11:17:36.014Z,31.25
2018-07-16T11:18:35.933Z,30.55
2018-07-16T11:19:35.859Z,30.57
2018-07-16T11:20:35.780Z,31.69
2018-07-16T11:21:35.706Z,32.52
2018-07-16T11:22:35.628Z,33.50
2018-07-16T11:23:35.543Z,34.40
2018-07-16T11:24:35.465Z,35.19
2018-07-16T11:25:35.395Z,35.11
2018-07-16T11:26:35.313Z,35.00
2018-07-16T11:27:35.233Z,34.67
2018-07-16T11:28:35.159Z,34.32
2018-07-16T11:29:35.072Z,34.42
2018-07-16T11:30:34.993Z,34.62
2018-07-16T11:31:34.919Z,34.67
2018-07-16T11:32:34.841Z,34.71
2018-07-16T11:33:34.762Z,34.71
2018-07-16T11:34:34.682Z,34.23
2018-07-16T11:35:34.691Z,33.57
2018-07-16T11:36:34.530Z,33.45
2018-07-16T11:37:34.450Z,33.69
2018-07-16T11:38:34.371Z,32.78
2018-07-16T11:39:34.289Z,33.07
2018-07-16T11:40:34.210Z,33.50
2018-07-16T11:41:34.141Z,33.80
2018-07-16T11:42:34.058Z,34.32
2018-07-16T11:43:33.980Z,33.83
2018-07-16T11:44:33.897Z,33.50
2018-07-16T11:45:33.822Z,33.67
2018-07-16T11:46:33.746Z,33.49
2018-07-16T11:47:33.581Z,33.40
2018-07-16T11:48:33.579Z,33.20
2018-07-16T11:49:33.493Z,32.68
2018-07-16T11:50:33.427Z,31.71
2018-07-16T11:51:33.343Z,31.09
2018-07-16T11:52:33.264Z,31.03
2018-07-16T11:53:33.185Z,30.66
2018-07-16T11:54:33.095Z,30.80
2018-07-16T11:55:33.012Z,30.70
2018-07-16T11:56:32.938Z,30.94
2018-07-16T11:57:32.858Z,30.88
2018-07-16T11:58:32.767Z,30.46
2018-07-16T11:59:32.684Z,30.12
2018-07-16T12:00:32.595Z,30.09
2018-07-16T12:01:32.518Z,30.10
2018-07-16T12:02:32.440Z,30.65
2018-07-16T12:03:32.437Z,31.24
2018-07-16T12:04:32.275Z,31.55
2018-07-16T12:05:32.178Z,32.00
2018-07-16T12:06:32.100Z,31.93
2018-07-16T12:07:32.014Z,31.07
2018-07-16T12:08:31.934Z,31.03
2018-07-16T12:09:31.845Z,31.22
2018-07-16T12:10:31.767Z,30.94
2018-07-16T12:11:31.671Z,30.85
2018-07-16T12:12:31.637Z,30.57
2018-07-16T12:13:31.508Z,30.46
2018-07-16T12:14:31.429Z,30.06
2018-07-16T12:15:31.346Z,29.47
2018-07-16T12:16:31.255Z,29.29
2018-07-16T12:17:31.175Z,29.34
2018-07-16T12:18:31.096Z,29.31
2018-07-16T12:19:31.011Z,29.22
2018-07-16T12:20:31.002Z,29.27
2018-07-16T12:21:30.852Z,28.91
2018-07-16T12:22:30.774Z,28.79
2018-07-16T12:23:30.686Z,28.75
2018-07-16T12:24:30.609Z,28.63
2018-07-16T12:25:30.526Z,28.56
2018-07-16T12:26:30.452Z,28.35
2018-07-16T12:27:30.354Z,28.30
2018-07-16T12:28:30.276Z,28.33
2018-07-16T12:29:30.202Z,28.29
2018-07-16T12:30:30.111Z,28.35
2018-07-16T12:31:30.029Z,28.48
2018-07-16T12:32:29.950Z,28.57
2018-07-16T12:33:29.862Z,28.74
2018-07-16T12:34:29.783Z,28.74
2018-07-16T12:35:29.697Z,28.72
2018-07-16T12:36:29.618Z,28.57
2018-07-16T12:37:29.533Z,28.26
2018-07-16T12:38:29.446Z,28.14
2018-07-16T12:39:29.356Z,28.05
2018-07-16T12:40:29.278Z,28.07
2018-07-16T12:41:29.268Z,28.07
2018-07-16T12:42:29.111Z,28.08
2018-07-16T12:43:29.015Z,28.22
2018-07-16T12:44:28.937Z,28.42
2018-07-16T12:45:28.853Z,28.32
2018-07-16T12:46:28.760Z,28.15
2018-07-16T12:47:28.677Z,28.14
2018-07-16T12:48:28.591Z,27.98
2018-07-16T12:49:28.496Z,27.70
2018-07-16T12:50:28.415Z,27.65
2018-07-16T12:51:28.330Z,27.73